Time;durP1;ratioP1;P1;durP2;ratioP2;P2;SDS_P1;SDS_P2;PMS_P1;PMS_P2;Temp;Humidity;BMP_temperature;BMP_pressure;BME280_temperature;BME280_humidity;BME280_pressure;Samples;Min_cycle;Max_cycle;Signal;HPM_P1;HPM_P2
2024/01/31 00:00:39;;;;;;;;;;;8.80;99.90;;;-146.41;100.00;57768.22;4983979;28;1333;-71
2024/01/31 00:03:07;;;;;;;;;;;8.80;99.90;;;-146.41;100.00;57768.22;4985663;28;1733;-70
2024/01/31 00:05:34;;;;;;;;;;;8.80;99.90;;;-146.41;100.00;57768.22;4985851;28;1446;-71
2024/01/31 00:08:01;;;;;;;;;;;8.80;99.90;;;-146.41;100.00;57768.22;4985624;28;1357;-71
2024/01/31 00:10:28;;;;;;;;;;;8.90;99.90;;;-146.41;100.00;57768.22;4987016;28;1553;-71
2024/01/31 00:12:55;;;;;;;;;;;8.90;99.90;;;-146.41;100.00;57768.22;4982770;28;1286;-71
2024/01/31 00:15:22;;;;;;;;;;;8.80;99.90;;;-146.41;100.00;57768.22;4982260;28;1507;-70
2024/01/31 00:17:49;;;;;;;;;;;8.80;99.90;;;-146.41;100.00;57768.22;4981156;28;1365;-70
2024/01/31 00:20:16;;;;;;;;;;;8.80;99.90;;;-146.41;100.00;57768.22;4982447;28;1918;-70
2024/01/31 00:22:43;;;;;;;;;;;8.90;99.90;;;-146.41;100.00;57768.22;4983193;28;1305;-71
2024/01/31 00:25:10;;;;;;;;;;;8.90;99.90;;;-146.41;100.00;57768.22;4998475;28;1345;-70
2024/01/31 00:27:37;;;;;;;;;;;8.90;99.90;;;-146.41;100.00;57768.22;4981575;28;1428;-70
2024/01/31 00:30:04;;;;;;;;;;;8.90;99.90;;;-146.41;100.00;57768.22;4986018;28;1726;-71
2024/01/31 00:32:31;;;;;;;;;;;8.90;99.90;;;-146.41;100.00;57768.22;4983606;28;1642;-70
2024/01/31 00:34:58;;;;;;;;;;;8.90;99.90;;;-146.41;100.00;57768.22;4984620;28;1478;-71
2024/01/31 00:37:25;;;;;;;;;;;9.00;99.90;;;-146.41;100.00;57768.22;4999106;28;1348;-71
2024/01/31 00:39:52;;;;;;;;;;;9.00;99.90;;;-146.41;100.00;57768.22;4981994;28;1981;-71
2024/01/31 00:42:19;;;;;;;;;;;9.00;99.90;;;-146.41;100.00;57768.22;4981436;28;1336;-71
2024/01/31 00:44:46;;;;;;;;;;;9.00;99.90;;;-146.41;100.00;57768.22;4978027;28;1389;-71
2024/01/31 00:47:13;;;;;;;;;;;9.00;99.90;;;-146.41;100.00;57768.22;4981587;28;1603;-70
2024/01/31 00:49:40;;;;;;;;;;;9.00;99.90;;;-146.41;100.00;57768.22;4983070;28;1346;-70
2024/01/31 00:52:07;;;;;;;;;;;9.00;99.90;;;-146.41;100.00;57768.22;4997556;28;1924;-71
2024/01/31 00:54:35;;;;;;;;;;;8.90;99.90;;;-146.41;100.00;57768.22;4980593;28;1469;-71
2024/01/31 00:57:02;;;;;;;;;;;8.90;99.90;;;-146.41;100.00;57768.22;4981001;28;1362;-71
2024/01/31 00:59:29;;;;;;;;;;;8.90;99.90;;;-146.41;100.00;57768.22;4982592;28;1903;-71
2024/01/31 01:01:56;;;;;;;;;;;8.90;99.90;;;-146.41;100.00;57768.22;4997931;28;1310;-72
2024/01/31 01:04:23;;;;;;;;;;;8.90;99.90;;;-146.41;100.00;57768.22;4982413;28;1652;-71
2024/01/31 01:06:50;;;;;;;;;;;8.80;99.90;;;-146.41;100.00;57768.22;4999979;28;1678;-71
2024/01/31 01:09:16;;;;;;;;;;;8.80;99.90;;;-146.41;100.00;57768.22;4978800;28;1405;-71
2024/01/31 01:11:43;;;;;;;;;;;8.80;99.90;;;-146.41;100.00;57768.22;4981852;28;1352;-71
2024/01/31 01:14:10;;;;;;;;;;;8.80;99.90;;;-146.41;100.00;57768.22;4981713;28;1291;-71
2024/01/31 01:16:37;;;;;;;;;;;8.70;99.90;;;-146.41;100.00;57768.22;4979614;28;1362;-70
2024/01/31 01:19:04;;;;;;;;;;;8.70;99.90;;;-146.41;100.00;57768.22;4979845;28;1899;-71
2024/01/31 01:21:32;;;;;;;;;;;8.60;99.90;;;-146.41;100.00;57768.22;4985040;28;1377;-71
2024/01/31 01:23:59;;;;;;;;;;;8.60;99.90;;;-146.41;100.00;57768.22;4981798;28;1364;-71
2024/01/31 01:26:26;;;;;;;;;;;8.50;99.90;;;-146.41;100.00;57768.22;4983143;28;1317;-71
2024/01/31 01:28:53;;;;;;;;;;;8.50;99.90;;;-146.41;100.00;57768.22;4996122;28;1359;-71
2024/01/31 01:31:21;;;;;;;;;;;8.60;99.90;;;-146.41;100.00;57768.22;4982474;28;1401;-71
2024/01/31 01:33:47;;;;;;;;;;;8.50;99.90;;;-146.41;100.00;57768.22;4980939;28;1684;-71
2024/01/31 01:36:15;;;;;;;;;;;8.50;99.90;;;-146.41;100.00;57768.22;4979947;28;1333;-71
2024/01/31 01:38:42;;;;;;;;;;;8.60;99.90;;;-146.41;100.00;57768.22;4982239;28;2239;-71
2024/01/31 01:41:08;;;;;;;;;;;8.60;99.90;;;-146.41;100.00;57768.22;4981117;28;1451;-71
2024/01/31 01:43:35;;;;;;;;;;;8.70;99.90;;;-146.41;100.00;57768.22;4982302;28;1317;-70
2024/01/31 01:46:09;;;;;;;;;;;8.70;99.90;;;-146.41;100.00;57768.22;4980224;28;1312;-71
2024/01/31 01:48:37;;;;;;;;;;;8.60;99.90;;;-146.41;100.00;57768.22;4980801;28;1341;-72
2024/01/31 01:51:04;;;;;;;;;;;8.60;99.90;;;-146.41;100.00;57768.22;4962791;28;1358;-71
2024/01/31 01:53:34;;;;;;;;;;;8.70;99.90;;;-146.41;100.00;57768.22;4994652;28;1337;-71
2024/01/31 01:56:04;;;;;;;;;;;8.70;99.90;;;-146.41;100.00;57768.22;4980528;28;1783;-71
2024/01/31 01:58:32;;;;;;;;;;;8.60;99.90;;;-146.41;100.00;57768.22;4979390;28;1322;-71
2024/01/31 02:01:00;;;;;;;;;;;8.50;99.90;;;-146.41;100.00;57768.22;4994770;28;1350;-71
2024/01/31 02:03:29;;;;;;;;;;;8.50;99.90;;;-146.41;100.00;57768.22;4982466;28;1595;-71
2024/01/31 02:05:57;;;;;;;;;;;8.50;99.90;;;-146.41;100.00;57768.22;4982021;28;1378;-73
2024/01/31 02:08:26;;;;;;;;;;;8.40;99.90;;;-146.41;100.00;57768.22;4980547;28;1405;-71
2024/01/31 02:10:53;;;;;;;;;;;8.30;99.90;;;-146.41;100.00;57768.22;4994731;28;1443;-71
2024/01/31 02:13:20;;;;;;;;;;;8.20;99.90;;;-146.41;100.00;57768.22;4980537;28;1329;-71
2024/01/31 02:15:57;;;;;;;;;;;8.20;99.90;;;-146.41;100.00;57768.22;4980427;28;1352;-71
2024/01/31 02:18:26;;;;;;;;;;;8.20;99.90;;;-146.41;100.00;57768.22;5008542;28;1308;-71
2024/01/31 02:20:53;;;;;;;;;;;8.20;99.90;;;-146.41;100.00;57768.22;4981751;28;1974;-71
2024/01/31 02:23:21;;;;;;;;;;;8.20;99.90;;;-146.41;100.00;57768.22;4979097;28;1518;-71
2024/01/31 02:25:49;;;;;;;;;;;8.20;99.90;;;-146.41;100.00;57768.22;4984333;28;1651;-71
2024/01/31 02:28:16;;;;;;;;;;;8.10;99.90;;;-146.41;100.00;57768.22;4981367;28;1183;-71
2024/01/31 02:30:43;;;;;;;;;;;8.10;99.90;;;-146.41;100.00;57768.22;4983230;28;1311;-71
2024/01/31 02:33:10;;;;;;;;;;;8.10;99.90;;;-146.41;100.00;57768.22;4980795;28;1226;-69
2024/01/31 02:35:38;;;;;;;;;;;8.10;99.90;;;-146.41;100.00;57768.22;4979455;28;1379;-71
2024/01/31 02:38:05;;;;;;;;;;;8.00;99.90;;;-146.41;100.00;57768.22;4979871;28;1349;-70
2024/01/31 02:40:32;;;;;;;;;;;8.00;99.90;;;-146.41;100.00;57768.22;4995923;28;1942;-70
2024/01/31 02:42:59;;;;;;;;;;;7.90;99.90;;;-146.41;100.00;57768.22;4981424;28;1291;-71
2024/01/31 02:45:29;;;;;;;;;;;7.90;99.90;;;-146.41;100.00;57768.22;4978628;28;1372;-71
2024/01/31 02:47:56;;;;;;;;;;;7.90;99.90;;;-146.41;100.00;57768.22;4976398;28;1283;-71
2024/01/31 02:50:25;;;;;;;;;;;8.00;99.90;;;-146.41;100.00;57768.22;4981379;28;1525;-71
2024/01/31 02:52:52;;;;;;;;;;;8.00;99.90;;;-146.41;100.00;57768.22;4982081;28;1699;-71
2024/01/31 02:55:19;;;;;;;;;;;8.00;99.90;;;-146.41;100.00;57768.22;4981131;28;1403;-71
2024/01/31 02:57:46;;;;;;;;;;;8.10;99.90;;;-146.41;100.00;57768.22;4981847;28;1307;-71
2024/01/31 03:00:13;;;;;;;;;;;8.10;99.90;;;-146.41;100.00;57768.22;4982872;28;2009;-71
2024/01/31 03:02:42;;;;;;;;;;;8.10;99.90;;;-146.41;100.00;57768.22;4994644;28;1292;-71
2024/01/31 03:05:10;;;;;;;;;;;8.10;99.90;;;-146.41;100.00;57768.22;4981091;28;1406;-70
2024/01/31 03:07:38;;;;;;;;;;;8.00;99.90;;;-146.41;100.00;57768.22;4981291;28;1573;-71
2024/01/31 03:10:06;;;;;;;;;;;8.10;99.90;;;-146.41;100.00;57768.22;4981324;28;1176;-71
2024/01/31 03:12:33;;;;;;;;;;;8.10;99.90;;;-146.41;100.00;57768.22;4980244;28;1232;-71
2024/01/31 03:15:00;;;;;;;;;;;8.10;99.90;;;-146.41;100.00;57768.22;4997882;28;1553;-71
2024/01/31 03:17:27;;;;;;;;;;;8.10;99.90;;;-146.41;100.00;57768.22;4976490;28;1782;-71
2024/01/31 03:19:54;;;;;;;;;;;8.10;99.90;;;-146.41;100.00;57768.22;4995212;28;1907;-71
2024/01/31 03:22:21;;;;;;;;;;;8.10;99.90;;;-146.41;100.00;57768.22;4985773;28;1360;-71
2024/01/31 03:24:47;;;;;;;;;;;8.10;99.90;;;-146.41;100.00;57768.22;4985509;28;1497;-71
2024/01/31 03:27:15;;;;;;;;;;;8.00;99.90;;;-146.41;100.00;57768.22;4983726;28;1216;-71
2024/01/31 03:29:42;;;;;;;;;;;8.00;99.90;;;-146.41;100.00;57768.22;4983312;28;1357;-70
2024/01/31 03:32:09;;;;;;;;;;;8.00;99.90;;;-146.41;100.00;57768.22;4982098;28;1230;-69
2024/01/31 03:34:36;;;;;;;;;;;7.90;99.90;;;-146.41;100.00;57768.22;4998549;28;1300;-71
2024/01/31 03:37:05;;;;;;;;;;;7.80;99.90;;;-146.41;100.00;57768.22;4982447;28;1235;-71
2024/01/31 03:39:32;;;;;;;;;;;7.80;99.90;;;-146.41;100.00;57768.22;5015309;28;1899;-71
2024/01/31 03:41:59;;;;;;;;;;;7.80;99.90;;;-146.41;100.00;57768.22;4982444;28;1180;-71
2024/01/31 03:44:27;;;;;;;;;;;7.70;99.90;;;-146.41;100.00;57768.22;4986083;28;1637;-71
2024/01/31 03:46:54;;;;;;;;;;;7.60;99.90;;;-146.41;100.00;57768.22;4985266;28;1624;-71
2024/01/31 03:49:21;;;;;;;;;;;7.50;99.90;;;-146.41;100.00;57768.22;4982170;28;1243;-72
2024/01/31 03:51:48;;;;;;;;;;;7.50;99.90;;;-146.41;100.00;57768.22;4983593;28;1247;-71
2024/01/31 03:54:15;;;;;;;;;;;7.40;99.90;;;-146.41;100.00;57768.22;4983812;28;1240;-71
2024/01/31 03:56:43;;;;;;;;;;;7.50;99.90;;;-146.41;100.00;57768.22;4985058;28;1332;-71
2024/01/31 03:59:10;;;;;;;;;;;7.60;99.90;;;-146.41;100.00;57768.22;4984074;28;1982;-71
2024/01/31 04:01:37;;;;;;;;;;;7.70;99.90;;;-146.41;100.00;57768.22;4984367;28;1358;-70
2024/01/31 04:04:04;;;;;;;;;;;7.60;99.90;;;-146.41;100.00;57768.22;4986160;28;1533;-71
2024/01/31 04:06:31;;;;;;;;;;;7.60;99.90;;;-146.41;100.00;57768.22;5000661;28;1306;-70
2024/01/31 04:08:58;;;;;;;;;;;7.60;99.90;;;-146.41;100.00;57768.22;4998804;28;1259;-71
2024/01/31 04:11:25;;;;;;;;;;;7.70;99.90;;;-146.41;100.00;57768.22;5019632;28;1239;-70
2024/01/31 04:13:51;;;;;;;;;;;7.60;99.90;;;-146.41;100.00;57768.22;4984045;28;1324;-70
2024/01/31 04:16:18;;;;;;;;;;;7.60;99.90;;;-146.41;100.00;57768.22;5000253;28;1228;-70
2024/01/31 04:18:45;;;;;;;;;;;7.60;99.90;;;-146.41;100.00;57768.22;4982062;28;1458;-70
2024/01/31 04:21:20;;;;;;;;;;;7.50;99.90;;;-146.41;100.00;57768.22;4983210;28;2020;-71
2024/01/31 04:23:48;;;;;;;;;;;7.50;99.90;;;-146.41;100.00;57768.22;4982724;28;2021;-70
2024/01/31 04:26:15;;;;;;;;;;;7.50;99.90;;;-146.41;100.00;57768.22;4983459;28;1299;-70
2024/01/31 04:28:42;;;;;;;;;;;7.50;99.90;;;-146.41;100.00;57768.22;5012514;28;1235;-71
2024/01/31 04:31:14;;;;;;;;;;;7.50;99.90;;;-146.41;100.00;57768.22;4999110;28;1397;-70
2024/01/31 04:33:42;;;;;;;;;;;7.40;99.90;;;-146.41;100.00;57768.22;4995763;28;1536;-71
2024/01/31 04:36:09;;;;;;;;;;;7.40;99.90;;;-146.41;100.00;57768.22;4984151;28;1268;-71
2024/01/31 04:38:36;;;;;;;;;;;7.30;99.90;;;-146.41;100.00;57768.22;4999434;28;1219;-71
2024/01/31 04:41:03;;;;;;;;;;;7.40;99.90;;;-146.41;100.00;57768.22;4996305;28;1977;-71
2024/01/31 04:43:30;;;;;;;;;;;7.40;99.90;;;-146.41;100.00;57768.22;4981799;28;1415;-71
2024/01/31 04:45:57;;;;;;;;;;;7.50;99.90;;;-146.41;100.00;57768.22;4983290;28;1746;-70
2024/01/31 04:48:24;;;;;;;;;;;7.50;99.90;;;-146.41;100.00;57768.22;4984045;28;1321;-70
2024/01/31 04:50:51;;;;;;;;;;;7.50;99.90;;;-146.41;100.00;57768.22;4984275;28;1231;-71
2024/01/31 04:53:18;;;;;;;;;;;7.50;99.90;;;-146.41;100.00;57768.22;4980212;28;1141;-71
2024/01/31 04:55:45;;;;;;;;;;;7.50;99.90;;;-146.41;100.00;57768.22;4982442;28;1383;-71
2024/01/31 04:58:13;;;;;;;;;;;7.50;99.90;;;-146.41;100.00;57768.22;4998950;28;1287;-71
2024/01/31 05:00:40;;;;;;;;;;;7.50;99.90;;;-146.41;100.00;57768.22;4980654;28;1930;-71
2024/01/31 05:03:07;;;;;;;;;;;7.50;99.90;;;-146.41;100.00;57768.22;5012766;28;1340;-71
2024/01/31 05:05:34;;;;;;;;;;;7.50;99.90;;;-146.41;100.00;57768.22;4983326;28;1359;-72
2024/01/31 05:08:01;;;;;;;;;;;7.50;99.90;;;-146.41;100.00;57768.22;4981700;28;1325;-70
2024/01/31 05:10:28;;;;;;;;;;;7.50;99.90;;;-146.41;100.00;57768.22;4983566;28;1267;-71
2024/01/31 05:12:55;;;;;;;;;;;7.60;99.90;;;-146.41;100.00;57768.22;4984156;28;1312;-71
2024/01/31 05:15:22;;;;;;;;;;;7.60;99.90;;;-146.41;100.00;57768.22;4985075;28;1376;-70
2024/01/31 05:17:49;;;;;;;;;;;7.60;99.90;;;-146.41;100.00;57768.22;4978072;28;1241;-70
2024/01/31 05:20:16;;;;;;;;;;;7.50;99.90;;;-146.41;100.00;57768.22;4980431;28;1992;-70
2024/01/31 05:22:43;;;;;;;;;;;7.40;99.90;;;-146.41;100.00;57768.22;4982009;28;1632;-71
2024/01/31 05:25:10;;;;;;;;;;;7.20;99.90;;;-146.41;100.00;57768.22;5011229;28;1371;-70
2024/01/31 05:27:37;;;;;;;;;;;7.20;99.90;;;-146.41;100.00;57768.22;5015159;28;1570;-70
2024/01/31 05:30:05;;;;;;;;;;;7.20;99.90;;;-146.41;100.00;57768.22;4984064;28;1239;-71
2024/01/31 05:32:32;;;;;;;;;;;7.00;99.90;;;-146.41;100.00;57768.22;4998193;28;1228;-71
2024/01/31 05:34:59;;;;;;;;;;;6.90;99.90;;;-146.41;100.00;57768.22;4981204;28;1453;-71
2024/01/31 05:37:26;;;;;;;;;;;6.90;99.90;;;-146.41;100.00;57768.22;4978326;28;1238;-70
2024/01/31 05:39:53;;;;;;;;;;;7.00;99.90;;;-146.41;100.00;57768.22;4994646;28;1906;-71
2024/01/31 05:42:19;;;;;;;;;;;7.00;99.90;;;-146.41;100.00;57768.22;4979276;28;1665;-71
2024/01/31 05:44:47;;;;;;;;;;;7.00;99.90;;;-146.41;100.00;57768.22;4982810;28;1331;-71
2024/01/31 05:47:14;;;;;;;;;;;7.00;99.90;;;-146.41;100.00;57768.22;4981457;28;1327;-70
2024/01/31 05:49:41;;;;;;;;;;;7.00;99.90;;;-146.41;100.00;57768.22;4983488;28;1593;-70
2024/01/31 05:52:09;;;;;;;;;;;7.00;99.90;;;-146.41;100.00;57768.22;4980575;28;1368;-71
2024/01/31 05:54:38;;;;;;;;;;;6.90;99.90;;;-146.41;100.00;57768.22;5011114;28;1308;-71
2024/01/31 05:57:06;;;;;;;;;;;6.90;99.90;;;-146.41;100.00;57768.22;4983444;28;1399;-71
2024/01/31 05:59:32;;;;;;;;;;;6.70;99.90;;;-146.41;100.00;57768.22;4980938;28;1275;-70
2024/01/31 06:02:00;;;;;;;;;;;6.80;99.90;;;-146.41;100.00;57768.22;4983143;28;1979;-71
2024/01/31 06:04:26;;;;;;;;;;;6.70;99.90;;;-146.41;100.00;57768.22;4981558;28;1528;-71
2024/01/31 06:06:54;;;;;;;;;;;6.70;99.90;;;-146.41;100.00;57768.22;4995379;28;1356;-71
2024/01/31 06:09:21;;;;;;;;;;;6.70;99.90;;;-146.41;100.00;57768.22;4997534;28;1227;-70
2024/01/31 06:11:48;;;;;;;;;;;6.60;99.90;;;-146.41;100.00;57768.22;4980378;28;1051;-70
2024/01/31 06:14:15;;;;;;;;;;;6.50;99.90;;;-146.41;100.00;57768.22;4995255;28;1308;-70
2024/01/31 06:16:42;;;;;;;;;;;6.50;99.90;;;-146.41;100.00;57768.22;4980664;28;1047;-69
2024/01/31 06:19:09;;;;;;;;;;;6.40;99.90;;;-146.41;100.00;57768.22;4978850;28;1193;-70
2024/01/31 06:21:36;;;;;;;;;;;6.40;99.90;;;-146.41;100.00;57768.22;4976090;28;1979;-70
2024/01/31 06:24:03;;;;;;;;;;;6.40;99.90;;;-146.41;100.00;57768.22;4993476;28;1320;-71
2024/01/31 06:26:32;;;;;;;;;;;6.40;99.90;;;-146.41;100.00;57768.22;4966733;28;1217;-71
2024/01/31 06:28:59;;;;;;;;;;;6.40;99.90;;;-146.41;100.00;57768.22;4978863;28;1083;-70
2024/01/31 06:31:28;;;;;;;;;;;6.40;99.90;;;-146.41;100.00;57768.22;4976811;28;1277;-72
2024/01/31 06:33:55;;;;;;;;;;;6.30;99.90;;;-146.41;100.00;57768.22;4980807;28;1420;-71
2024/01/31 06:36:22;;;;;;;;;;;6.20;99.90;;;-146.41;100.00;57768.22;4980089;28;1355;-71
2024/01/31 06:38:49;;;;;;;;;;;6.20;99.90;;;-146.41;100.00;57768.22;4995201;28;1100;-70
2024/01/31 06:41:17;;;;;;;;;;;6.20;99.90;;;-146.41;100.00;57768.22;4979317;28;1899;-71
2024/01/31 06:43:44;;;;;;;;;;;6.20;99.90;;;-146.41;100.00;57768.22;4976909;28;1245;-72
2024/01/31 06:46:11;;;;;;;;;;;6.10;99.90;;;-146.41;100.00;57768.22;4977609;28;1424;-71
2024/01/31 06:48:38;;;;;;;;;;;6.00;99.90;;;-146.41;100.00;57768.22;4977509;28;1043;-71
2024/01/31 06:51:07;;;;;;;;;;;5.90;99.90;;;-146.41;100.00;57768.22;4979625;28;1308;-71
2024/01/31 06:53:34;;;;;;;;;;;5.80;99.90;;;-146.41;100.00;57768.22;4992352;28;1376;-70
2024/01/31 06:56:01;;;;;;;;;;;5.80;99.90;;;-146.41;100.00;57768.22;4982818;28;1190;-71
2024/01/31 06:58:28;;;;;;;;;;;5.70;99.90;;;-146.41;100.00;57768.22;4976834;28;1050;-71
2024/01/31 07:00:57;;;;;;;;;;;5.70;99.90;;;-146.41;100.00;57768.22;4975992;28;1976;-70
2024/01/31 07:03:24;;;;;;;;;;;5.60;99.90;;;-146.41;100.00;57768.22;4980859;28;1352;-70
2024/01/31 07:05:51;;;;;;;;;;;5.50;99.90;;;-146.41;100.00;57768.22;4977409;28;1281;-71
2024/01/31 07:08:18;;;;;;;;;;;5.60;99.90;;;-146.41;100.00;57768.22;4979516;28;1158;-70
2024/01/31 07:10:45;;;;;;;;;;;5.50;99.90;;;-146.41;100.00;57768.22;4992792;28;1066;-71
2024/01/31 07:13:12;;;;;;;;;;;5.40;99.90;;;-146.41;100.00;57768.22;4975392;28;1043;-70
2024/01/31 07:15:39;;;;;;;;;;;5.40;99.90;;;-146.41;100.00;57768.22;4994193;28;1257;-70
2024/01/31 07:18:06;;;;;;;;;;;5.30;99.90;;;-146.41;100.00;57768.22;4980926;28;1102;-71
2024/01/31 07:20:33;;;;;;;;;;;5.40;99.90;;;-146.41;100.00;57768.22;4990959;28;2015;-70
2024/01/31 07:23:00;;;;;;;;;;;5.40;99.90;;;-146.41;100.00;57768.22;4992998;28;2050;-71
2024/01/31 07:25:27;;;;;;;;;;;5.30;99.90;;;-146.41;100.00;57768.22;4980333;28;1394;-71
2024/01/31 07:27:54;;;;;;;;;;;5.30;99.90;;;-146.41;100.00;57768.22;4976056;28;1138;-70
2024/01/31 07:30:21;;;;;;;;;;;5.30;99.90;;;-146.41;100.00;57768.22;4979105;28;1083;-70
2024/01/31 07:32:48;;;;;;;;;;;5.40;99.90;;;-146.41;100.00;57768.22;4982201;28;1221;-70
2024/01/31 07:35:15;;;;;;;;;;;5.40;99.90;;;-146.41;100.00;57768.22;4976343;28;1250;-71
2024/01/31 07:37:41;;;;;;;;;;;5.50;99.90;;;-146.41;100.00;57768.22;4990104;28;1071;-70
2024/01/31 07:40:11;;;;;;;;;;;5.40;99.90;;;-146.41;100.00;57768.22;4979891;28;1922;-70
2024/01/31 07:42:38;;;;;;;;;;;5.30;99.90;;;-146.41;100.00;57768.22;4976015;28;1238;-71
2024/01/31 07:45:05;;;;;;;;;;;5.40;99.90;;;-146.41;100.00;57768.22;4977442;28;1264;-70
2024/01/31 07:47:32;;;;;;;;;;;5.50;99.90;;;-146.41;100.00;57768.22;4978408;28;1324;-70
2024/01/31 07:49:59;;;;;;;;;;;5.50;99.90;;;-146.41;100.00;57768.22;4977294;28;1116;-71
2024/01/31 07:52:26;;;;;;;;;;;5.60;99.90;;;-146.41;100.00;57768.22;4978495;28;1173;-70
2024/01/31 07:54:53;;;;;;;;;;;5.70;99.90;;;-146.41;100.00;57768.22;4976287;28;1320;-70
2024/01/31 07:57:20;;;;;;;;;;;5.80;99.90;;;-146.41;100.00;57768.22;4980925;28;1765;-70
2024/01/31 07:59:46;;;;;;;;;;;5.80;99.90;;;-146.41;100.00;57768.22;4979380;28;1220;-71
2024/01/31 08:02:14;;;;;;;;;;;5.80;99.90;;;-146.41;100.00;57768.22;4993954;28;1990;-70
2024/01/31 08:04:41;;;;;;;;;;;5.80;99.90;;;-146.41;100.00;57768.22;4978905;28;1277;-70
2024/01/31 08:07:12;;;;;;;;;;;5.90;99.90;;;-146.41;100.00;57768.22;4981465;28;1357;-71
2024/01/31 08:09:40;;;;;;;;;;;5.90;99.90;;;-146.41;100.00;57768.22;4980959;28;1568;-71
2024/01/31 08:12:07;;;;;;;;;;;5.90;99.90;;;-146.41;100.00;57768.22;4997115;28;1488;-71
2024/01/31 08:14:34;;;;;;;;;;;6.10;99.90;;;-146.41;100.00;57768.22;4997081;28;1504;-71
2024/01/31 08:17:01;;;;;;;;;;;6.10;99.90;;;-146.41;100.00;57768.22;4981393;28;1610;-71
2024/01/31 08:19:29;;;;;;;;;;;6.20;99.90;;;-146.41;100.00;57768.22;4982167;28;1415;-71
2024/01/31 08:21:56;;;;;;;;;;;6.10;99.90;;;-146.41;100.00;57768.22;4996270;28;1922;-70
2024/01/31 08:24:23;;;;;;;;;;;6.20;99.90;;;-146.41;100.00;57768.22;4998357;28;1285;-70
2024/01/31 08:26:50;;;;;;;;;;;6.30;99.90;;;-146.41;100.00;57768.22;4981543;28;1229;-70
2024/01/31 08:29:17;;;;;;;;;;;6.50;99.90;;;-146.41;100.00;57768.22;4998166;28;1329;-70
2024/01/31 08:31:53;;;;;;;;;;;6.50;99.90;;;-146.41;100.00;57768.22;4981104;28;1404;-71
2024/01/31 08:34:20;;;;;;;;;;;6.60;99.90;;;-146.41;100.00;57768.22;4980471;28;1426;-71
2024/01/31 08:36:49;;;;;;;;;;;6.70;99.90;;;-146.41;100.00;57768.22;4979282;28;1015;-70
2024/01/31 08:39:16;;;;;;;;;;;6.50;99.90;;;-146.41;100.00;57768.22;4980668;28;1011;-70
2024/01/31 08:41:44;;;;;;;;;;;6.40;99.90;;;-146.41;100.00;57768.22;4994478;28;2017;-70
2024/01/31 08:44:11;;;;;;;;;;;6.50;99.90;;;-146.41;100.00;57768.22;4979383;28;1261;-72
2024/01/31 08:46:37;;;;;;;;;;;6.60;99.90;;;-146.41;100.00;57768.22;4979210;28;1128;-70
2024/01/31 08:49:24;;;;;;;;;;;6.60;99.90;;;-146.41;100.00;57768.22;4980492;28;1089;-70
2024/01/31 08:51:53;;;;;;;;;;;6.70;99.90;;;-146.41;100.00;57768.22;4979469;28;1459;-71
2024/01/31 08:54:20;;;;;;;;;;;6.80;99.90;;;-146.41;100.00;57768.22;4978817;28;1399;-69
2024/01/31 08:56:47;;;;;;;;;;;6.80;99.90;;;-146.41;100.00;57768.22;4980579;28;1177;-70
2024/01/31 08:59:15;;;;;;;;;;;6.90;99.90;;;-146.41;100.00;57768.22;4979696;28;1055;-70
2024/01/31 09:01:45;;;;;;;;;;;6.90;99.90;;;-146.41;100.00;57768.22;4979231;28;1989;-70
2024/01/31 09:04:13;;;;;;;;;;;7.00;99.90;;;-146.41;100.00;57768.22;4978272;28;1391;-70
2024/01/31 09:06:43;;;;;;;;;;;7.20;99.90;;;-146.41;100.00;57768.22;4999502;28;1062;-70
2024/01/31 09:09:10;;;;;;;;;;;7.30;99.90;;;-146.41;100.00;57768.22;4996541;28;1074;-71
2024/01/31 09:11:37;;;;;;;;;;;7.40;99.90;;;-146.41;100.00;57768.22;4981928;28;1393;-71
2024/01/31 09:14:05;;;;;;;;;;;7.40;99.90;;;-146.41;100.00;57768.22;4979797;28;1308;-71
2024/01/31 09:16:33;;;;;;;;;;;7.50;99.90;;;-146.41;100.00;57768.22;4980702;28;1149;-71
2024/01/31 09:19:01;;;;;;;;;;;7.60;99.90;;;-146.41;100.00;57768.22;4976921;28;1486;-71
2024/01/31 09:21:28;;;;;;;;;;;7.60;99.90;;;-146.41;100.00;57768.22;4983070;28;1890;-71
2024/01/31 09:23:55;;;;;;;;;;;7.70;99.90;;;-146.41;100.00;57768.22;4980544;28;1411;-70
2024/01/31 09:26:22;;;;;;;;;;;7.80;99.90;;;-146.41;100.00;57768.22;4982883;28;1109;-71
2024/01/31 09:28:50;;;;;;;;;;;7.80;99.90;;;-146.41;100.00;57768.22;4980228;28;1395;-71
2024/01/31 09:31:23;;;;;;;;;;;7.80;99.90;;;-146.41;100.00;57768.22;4979928;28;1158;-71
2024/01/31 09:33:52;;;;;;;;;;;7.80;99.90;;;-146.41;100.00;57768.22;4985037;28;1383;-71
2024/01/31 09:36:19;;;;;;;;;;;7.90;99.90;;;-146.41;100.00;57768.22;4980360;28;1079;-73
2024/01/31 09:38:49;;;;;;;;;;;7.90;99.90;;;-146.41;100.00;57768.22;5011917;28;1404;-71
2024/01/31 09:41:16;;;;;;;;;;;7.90;99.90;;;-146.41;100.00;57768.22;4978781;28;1961;-70
2024/01/31 09:43:43;;;;;;;;;;;7.90;99.90;;;-146.41;100.00;57768.22;4977808;28;1690;-71
2024/01/31 09:46:11;;;;;;;;;;;8.00;99.90;;;-146.41;100.00;57768.22;4984143;28;1399;-70
2024/01/31 09:48:39;;;;;;;;;;;8.00;99.90;;;-146.41;100.00;57768.22;4998724;28;1217;-70
2024/01/31 09:51:07;;;;;;;;;;;8.10;99.90;;;-146.41;100.00;57768.22;5010054;28;1236;-71
2024/01/31 09:53:38;;;;;;;;;;;8.10;99.90;;;-146.41;100.00;57768.22;4980752;28;1416;-71
2024/01/31 09:56:06;;;;;;;;;;;8.10;99.90;;;-146.41;100.00;57768.22;4966535;28;1356;-71
2024/01/31 09:58:33;;;;;;;;;;;8.20;99.90;;;-146.41;100.00;57768.22;4984111;28;1086;-71
2024/01/31 10:01:01;;;;;;;;;;;8.20;99.90;;;-146.41;100.00;57768.22;4981880;28;1976;-71
2024/01/31 10:03:39;;;;;;;;;;;8.20;99.90;;;-146.41;100.00;57768.22;4977681;28;1399;-70
2024/01/31 10:06:06;;;;;;;;;;;8.20;99.90;;;-146.41;100.00;57768.22;4979157;28;1407;-74
2024/01/31 10:08:38;;;;;;;;;;;8.40;99.90;;;-146.41;100.00;57768.22;4981655;28;1296;-71
2024/01/31 10:11:06;;;;;;;;;;;8.40;99.90;;;-146.41;100.00;57768.22;4978937;28;1210;-70
2024/01/31 10:13:33;;;;;;;;;;;8.60;99.90;;;-146.41;100.00;57768.22;4979876;28;1406;-70
2024/01/31 10:16:00;;;;;;;;;;;8.70;99.90;;;-146.41;100.00;57768.22;4979725;28;1407;-71
2024/01/31 10:18:30;;;;;;;;;;;8.80;99.90;;;-146.41;100.00;57768.22;4980883;28;1202;-71
2024/01/31 10:20:57;;;;;;;;;;;8.70;99.90;;;-146.41;100.00;57768.22;4978195;28;1983;-71
2024/01/31 10:23:25;;;;;;;;;;;8.80;99.90;;;-146.41;100.00;57768.22;4980711;28;1572;-71
2024/01/31 10:25:53;;;;;;;;;;;8.80;99.90;;;-146.41;100.00;57768.22;4980421;28;1363;-71
2024/01/31 10:28:21;;;;;;;;;;;8.90;99.90;;;-146.41;100.00;57768.22;5010247;28;1153;-71
2024/01/31 10:30:48;;;;;;;;;;;8.90;99.90;;;-146.41;100.00;57768.22;4981213;28;1486;-70
2024/01/31 10:33:15;;;;;;;;;;;8.80;99.90;;;-146.41;100.00;57768.22;4979532;28;1457;-71
2024/01/31 10:35:43;;;;;;;;;;;8.60;99.90;;;-146.41;100.00;57768.22;4995844;28;1373;-71
2024/01/31 10:38:13;;;;;;;;;;;8.40;99.90;;;-146.41;100.00;57768.22;4980767;28;1390;-71
2024/01/31 10:40:42;;;;;;;;;;;8.60;99.90;;;-146.41;100.00;57768.22;4978831;28;1202;-71
2024/01/31 10:43:10;;;;;;;;;;;8.60;99.90;;;-146.41;100.00;57768.22;4994865;28;1981;-71
2024/01/31 10:45:38;;;;;;;;;;;8.60;99.90;;;-146.41;100.00;57768.22;4982590;28;1486;-71
2024/01/31 10:48:05;;;;;;;;;;;8.70;99.90;;;-146.41;100.00;57768.22;4980288;28;1451;-70
2024/01/31 10:50:33;;;;;;;;;;;8.50;99.90;;;-146.41;100.00;57768.22;4982572;28;1091;-71
2024/01/31 10:53:02;;;;;;;;;;;8.50;99.90;;;-146.41;100.00;57768.22;4983863;28;1150;-71
2024/01/31 10:55:29;;;;;;;;;;;8.70;99.90;;;-146.41;100.00;57768.22;4960794;28;1357;-71
2024/01/31 10:57:57;;;;;;;;;;;8.70;99.90;;;-146.41;100.00;57768.22;5009573;28;1134;-71
2024/01/31 11:00:25;;;;;;;;;;;8.90;99.90;;;-146.41;100.00;57768.22;4978470;28;1403;-71
2024/01/31 11:02:52;;;;;;;;;;;8.60;99.90;;;-146.41;100.00;57768.22;4993583;28;1983;-70
2024/01/31 11:05:19;;;;;;;;;;;8.80;99.90;;;-146.41;100.00;57768.22;4975972;28;1483;-70
2024/01/31 11:07:46;;;;;;;;;;;9.00;99.90;;;-146.41;100.00;57768.22;4976266;28;1107;-71
2024/01/31 11:10:17;;;;;;;;;;;9.10;99.90;;;-146.41;100.00;57768.22;4977070;28;1115;-71